Terminal Aerodrome Forecast
Issued by NWS

Home | Current Version | Previous Version | Graphics & Text | Print | Product List | Glossary On
Versions: 1 2 3 4 5 6 7 8 9 10 11 12 13 14 15 16 17
614
FTUS42 KMHX 260540
TAFOAJ
TAF
KOAJ 260540Z 2606/2706 07005KT P6SM OVC015
     FM260900 VRB04KT P6SM SCT025
     FM261300 04008KT P6SM SCT035
     FM270300 VRB03KT P6SM SCT250
      AMD LTD TO CLD VIS AND WIND=

USA.gov is the U.S. government's official web portal to all federal, state and local government web resources and services.